Millinocket, Maine
Current Conditions -  °F | °C
As of 10:53 PM on Wednesday 22 Oct 2014 (Local Time) from KMLT Reporting Station
Overcast Overcast  
Wind Chill: 38°   Ceiling: 1200
Heat Index: 44°   Visibility: 10mi
Dew Point: 41°   Wind: 12mph
Humidity: 89%   Direction: 40°NE
Pressure: 30.22"   Gusts: 17mph
Location:  45.66°N, 68.71°W
Report Text: KMLT 230253Z AUTO 04010G15KT 10SM OVC012 07/05 A3022 RMK AO2 RAE12 SLP240 P0000 60002 T00670050 56010
Loading
Personal Weather Stations






























Interactive Weather Map
Tropical Storm Tracking
New forecast layout! Learn more

10-Day Weather Forecast

Advertisements
Track Severe Weather on mobile